createdAt,value
2023-02-27T00:08:49.410Z,1027.43
2023-02-27T00:18:54.973Z,1027.43
2023-02-27T00:29:01.571Z,1027.45
2023-02-27T00:39:06.752Z,1027.53
2023-02-27T00:49:11.890Z,1027.48
2023-02-27T00:59:17.291Z,1027.47
2023-02-27T01:09:22.670Z,1027.44
2023-02-27T01:19:27.880Z,1027.40
2023-02-27T01:29:32.945Z,1027.36
2023-02-27T01:39:38.418Z,1027.32
2023-02-27T01:51:03.651Z,1027.30
2023-02-27T02:01:08.255Z,1027.43
2023-02-27T02:11:13.207Z,1027.37
2023-02-27T02:21:18.702Z,1027.37
2023-02-27T02:31:24.097Z,1027.39
2023-02-27T02:41:29.422Z,1027.51
2023-02-27T02:51:34.572Z,1027.57
2023-02-27T03:01:39.673Z,1027.60
2023-02-27T03:11:45.165Z,1027.68
2023-02-27T03:21:50.391Z,1027.72
2023-02-27T03:31:56.266Z,1027.82
2023-02-27T03:42:01.790Z,1027.87
2023-02-27T03:52:07.037Z,1027.94
2023-02-27T04:02:12.100Z,1028.01
2023-02-27T04:13:36.838Z,1028.09
2023-02-27T04:25:00.796Z,1028.19
2023-02-27T04:35:04.807Z,1028.23
2023-02-27T04:45:09.976Z,1028.31
2023-02-27T04:55:15.257Z,1028.34
2023-02-27T05:05:20.151Z,1028.23
2023-02-27T05:15:25.304Z,1028.28
2023-02-27T05:25:30.868Z,1028.23
2023-02-27T05:35:36.460Z,1028.32
2023-02-27T05:45:42.367Z,1028.47
2023-02-27T05:55:48.053Z,1028.60
2023-02-27T06:05:53.851Z,1028.59
2023-02-27T06:16:01.821Z,1028.80
2023-02-27T06:26:07.031Z,1028.89
2023-02-27T06:36:12.607Z,1029.02
2023-02-27T06:46:17.990Z,1029.05
2023-02-27T06:56:23.394Z,1029.05
2023-02-27T07:07:32.696Z,1029.47
2023-02-27T07:16:39.721Z,1029.69
2023-02-27T07:26:44.859Z,1029.66
2023-02-27T07:36:50.107Z,1029.61
2023-02-27T07:46:55.687Z,1029.62
2023-02-27T07:57:01.248Z,1029.70
2023-02-27T08:07:06.474Z,1029.79
2023-02-27T08:17:11.792Z,1029.81
2023-02-27T08:27:17.207Z,1029.91
2023-02-27T08:37:22.462Z,1029.93
2023-02-27T08:47:27.810Z,1029.99
2023-02-27T08:57:33.007Z,1029.98
2023-02-27T09:07:37.999Z,1030.03
2023-02-27T09:17:43.253Z,1030.04
2023-02-27T09:27:48.611Z,1030.12
2023-02-27T09:37:54.317Z,1030.19
2023-02-27T09:47:59.753Z,1030.21
2023-02-27T09:58:05.089Z,1030.37
2023-02-27T10:08:10.618Z,1030.35
2023-02-27T10:18:26.132Z,1030.39
2023-02-27T10:28:26.481Z,1030.44
2023-02-27T10:38:33.559Z,1030.52
2023-02-27T10:48:38.898Z,1030.52
2023-02-27T10:58:44.303Z,1030.53
2023-02-27T11:08:50.375Z,1030.50
2023-02-27T11:18:55.590Z,1030.44
2023-02-27T11:29:01.044Z,1030.47
2023-02-27T11:39:06.009Z,1030.40
2023-02-27T11:49:11.593Z,1030.34
2023-02-27T11:59:17.142Z,1030.27
2023-02-27T12:09:22.736Z,1030.22
2023-02-27T12:19:28.228Z,1030.19
2023-02-27T12:29:33.365Z,1030.19
2023-02-27T12:39:38.763Z,1030.27
2023-02-27T12:49:44.691Z,1030.28
2023-02-27T12:59:50.040Z,1030.29
2023-02-27T13:09:55.315Z,1030.33
2023-02-27T13:20:00.700Z,1030.27
2023-02-27T13:30:06.524Z,1030.22
2023-02-27T13:40:11.766Z,1030.27
2023-02-27T13:50:17.173Z,1030.22
2023-02-27T14:00:22.140Z,1030.24
2023-02-27T14:10:27.931Z,1030.27
2023-02-27T14:20:32.919Z,1030.35
2023-02-27T14:30:38.483Z,1030.42
2023-02-27T14:40:44.066Z,1030.49
2023-02-27T14:50:49.448Z,1030.53
2023-02-27T15:00:54.770Z,1030.60
2023-02-27T15:10:59.899Z,1030.62
2023-02-27T15:21:05.353Z,1030.70
2023-02-27T15:31:10.718Z,1030.66
2023-02-27T15:41:16.225Z,1030.75
2023-02-27T15:51:21.442Z,1030.80
2023-02-27T16:01:27.345Z,1030.86
2023-02-27T16:11:32.944Z,1030.82
2023-02-27T16:21:38.503Z,1030.96
2023-02-27T16:33:03.931Z,1031.03
2023-02-27T16:43:08.178Z,1031.18
2023-02-27T16:53:13.952Z,1031.15
2023-02-27T17:03:19.790Z,1031.19
2023-02-27T17:13:25.490Z,1031.24
2023-02-27T17:23:30.724Z,1031.21
2023-02-27T17:33:36.414Z,1031.32
2023-02-27T17:43:43.326Z,1031.39
2023-02-27T17:53:49.094Z,1031.41
2023-02-27T18:03:54.790Z,1031.36
2023-02-27T18:14:00.649Z,1031.36
2023-02-27T18:24:06.856Z,1031.34
2023-02-27T18:34:12.808Z,1031.45
2023-02-27T18:44:17.922Z,1031.47
2023-02-27T18:54:23.725Z,1031.50
2023-02-27T19:04:29.036Z,1031.60
2023-02-27T19:14:34.704Z,1031.68
2023-02-27T19:24:39.817Z,1031.68
2023-02-27T19:34:45.284Z,1031.72
2023-02-27T19:44:50.669Z,1031.79
2023-02-27T19:54:56.442Z,1031.70
2023-02-27T20:05:02.147Z,1031.77
2023-02-27T20:15:07.691Z,1031.71
2023-02-27T20:25:12.851Z,1031.81
2023-02-27T20:35:17.894Z,1031.83
2023-02-27T20:45:23.374Z,1031.80
2023-02-27T20:55:29.039Z,1031.83
2023-02-27T21:05:34.806Z,1031.91
2023-02-27T21:15:40.166Z,1031.94
2023-02-27T21:25:45.530Z,1031.86
2023-02-27T21:35:50.829Z,1031.87
2023-02-27T21:45:56.138Z,1031.96
2023-02-27T21:56:01.662Z,1031.96
2023-02-27T22:06:06.971Z,1031.97
2023-02-27T22:16:12.057Z,1032.02
2023-02-27T22:26:17.585Z,1032.01
2023-02-27T22:36:22.712Z,1032.05
2023-02-27T22:46:28.409Z,1032.08
2023-02-27T22:56:33.771Z,1032.18
2023-02-27T23:06:39.194Z,1032.20
2023-02-27T23:16:44.298Z,1032.32
2023-02-27T23:26:49.574Z,1032.36
2023-02-27T23:36:55.398Z,1032.38
2023-02-27T23:47:00.526Z,1032.52
2023-02-27T23:57:05.925Z,1032.56
